Time;durP1;ratioP1;P1;durP2;ratioP2;P2;SDS_P1;SDS_P2;PMS_P1;PMS_P2;Temp;Humidity;BMP_temperature;BMP_pressure;BME280_temperature;BME280_humidity;BME280_pressure;Samples;Min_cycle;Max_cycle;Signal;HPM_P1;HPM_P2
2024/01/20 00:00:58;;;;;;;41.63;19.33;;;;;;;-9.28;100.00;96868.13;2066245;28;20054;-56
2024/01/20 00:01:59;;;;;;;42.63;18.63;;;;;;;-9.32;100.00;96874.69;2066584;28;20054;-57
2024/01/20 00:03:00;;;;;;;26.88;12.93;;;;;;;-9.24;100.00;96878.41;2066641;28;20384;-57
2024/01/20 00:04:01;;;;;;;43.50;19.33;;;;;;;-9.17;100.00;96877.88;2065973;28;20058;-57
2024/01/20 00:05:03;;;;;;;41.75;19.60;;;;;;;-9.23;100.00;96875.09;2066716;28;20050;-56
2024/01/20 00:06:04;;;;;;;41.30;18.85;;;;;;;-9.25;100.00;96873.28;2066527;28;20398;-57
2024/01/20 00:07:05;;;;;;;42.75;19.48;;;;;;;-9.28;100.00;96875.69;2066414;28;20042;-57
2024/01/20 00:08:06;;;;;;;41.53;19.63;;;;;;;-9.27;100.00;96874.88;2066616;28;20054;-63
2024/01/20 00:09:08;;;;;;;38.38;19.50;;;;;;;-9.29;100.00;96872.31;2066485;28;20405;-56
2024/01/20 00:10:12;;;;;;;40.60;20.02;;;;;;;-9.35;100.00;96862.84;2066460;28;20054;-56
2024/01/20 00:11:13;;;;;;;44.50;21.30;;;;;;;-9.29;100.00;96873.97;2066138;28;20073;-57
2024/01/20 00:12:14;;;;;;;42.22;19.30;;;;;;;-9.27;100.00;96865.69;2065831;28;20073;-56
2024/01/20 00:13:15;;;;;;;45.30;20.85;;;;;;;-9.24;100.00;96868.34;2066341;28;20046;-57
2024/01/20 00:14:17;;;;;;;43.15;20.95;;;;;;;-9.24;100.00;96867.50;2066642;28;20046;-56
2024/01/20 00:15:18;;;;;;;46.20;21.23;;;;;;;-9.24;100.00;96867.50;2066673;28;20053;-56
2024/01/20 00:16:19;;;;;;;41.55;20.13;;;;;;;-9.30;100.00;96863.06;2066532;28;20475;-57
2024/01/20 00:17:20;;;;;;;43.58;18.67;;;;;;;-9.28;100.00;96860.59;2066812;28;20042;-56
2024/01/20 00:18:21;;;;;;;39.97;20.67;;;;;;;-9.31;100.00;96863.84;2066020;28;20053;-56
2024/01/20 00:19:22;;;;;;;44.53;20.63;;;;;;;-9.33;100.00;96860.38;2066457;28;20050;-56
2024/01/20 00:20:23;;;;;;;41.10;19.70;;;;;;;-9.36;100.00;96860.25;2066129;28;20054;-56
2024/01/20 00:21:24;;;;;;;43.08;21.20;;;;;;;-9.43;100.00;96858.28;2066402;28;20049;-56
2024/01/20 00:22:26;;;;;;;38.28;19.63;;;;;;;-9.47;100.00;96857.28;2065728;28;20410;-56
2024/01/20 00:23:27;;;;;;;45.97;20.55;;;;;;;-9.48;100.00;96855.56;2066539;28;20046;-56
2024/01/20 00:24:29;;;;;;;40.35;19.23;;;;;;;-9.47;100.00;96848.88;2066370;28;20053;-56
2024/01/20 00:25:30;;;;;;;38.65;19.85;;;;;;;-9.42;100.00;96854.97;2066467;28;20153;-56
2024/01/20 00:26:31;;;;;;;40.28;19.52;;;;;;;-9.43;100.00;96853.25;2064933;28;20057;-56
2024/01/20 00:27:32;;;;;;;44.78;18.77;;;;;;;-9.37;100.00;96861.06;2066676;28;20034;-56
2024/01/20 00:28:33;;;;;;;42.10;19.27;;;;;;;-9.36;100.00;96860.25;2066156;28;20062;-57
2024/01/20 00:29:34;;;;;;;47.83;22.13;;;;;;;-9.37;100.00;96854.38;2066726;28;20394;-56
2024/01/20 00:30:35;;;;;;;41.58;20.40;;;;;;;-9.37;100.00;96859.41;2066471;28;20038;-57
2024/01/20 00:31:36;;;;;;;41.05;19.83;;;;;;;-9.38;100.00;96859.31;2065383;28;20069;-56
2024/01/20 00:32:37;;;;;;;40.15;20.05;;;;;;;-9.48;100.00;96857.22;2066107;28;20046;-56
2024/01/20 00:33:38;;;;;;;43.38;19.45;;;;;;;-9.46;100.00;96855.63;2066369;28;20391;-56
2024/01/20 00:34:40;;;;;;;35.08;14.10;;;;;;;-9.45;100.00;96862.38;2066035;28;20058;-56
2024/01/20 00:35:42;;;;;;;41.58;19.60;;;;;;;-9.43;100.00;96863.31;2066470;28;20058;-56
2024/01/20 00:36:43;;;;;;;38.53;19.35;;;;;;;-9.47;100.00;96863.97;2066301;28;20038;-56
2024/01/20 00:37:44;;;;;;;41.38;19.50;;;;;;;-9.47;100.00;96858.94;2065824;28;20058;-56
2024/01/20 00:38:45;;;;;;;41.53;18.55;;;;;;;-9.45;100.00;96869.94;2065702;28;20054;-56
2024/01/20 00:39:46;;;;;;;42.53;18.20;;;;;;;-9.46;100.00;96865.69;2065301;28;20066;-56
2024/01/20 00:40:48;;;;;;;40.38;16.60;;;;;;;-9.50;100.00;96866.34;2066164;28;20418;-57
2024/01/20 00:41:49;;;;;;;37.63;18.08;;;;;;;-9.47;100.00;96866.47;2066135;28;20053;-56
2024/01/20 00:42:50;;;;;;;38.45;18.42;;;;;;;-9.52;100.00;96856.22;2066178;28;20140;-56
2024/01/20 00:43:52;;;;;;;35.42;18.23;;;;;;;-9.53;100.00;96871.25;2066145;28;20046;-56
2024/01/20 00:44:53;;;;;;;35.67;16.23;;;;;;;-9.55;100.00;96861.09;2066259;28;20042;-56
2024/01/20 00:45:54;;;;;;;35.75;17.35;;;;;;;-9.56;100.00;96859.41;2065831;28;20483;-56
2024/01/20 00:46:56;;;;;;;35.95;17.80;;;;;;;-9.57;100.00;96857.66;2066280;28;20062;-56
2024/01/20 00:47:57;;;;;;;36.17;17.50;;;;;;;-9.55;100.00;96863.63;2066300;28;20046;-57
2024/01/20 00:48:58;;;;;;;34.83;16.40;;;;;;;-9.58;100.00;96854.28;2056927;28;20070;-56
2024/01/20 00:49:59;;;;;;;38.63;17.17;;;;;;;-9.58;100.00;96866.00;2056966;28;20066;-57
2024/01/20 00:51:00;;;;;;;36.40;16.00;;;;;;;-9.58;100.00;96864.34;2065555;28;20076;-54
2024/01/20 00:52:01;;;;;;;38.33;17.17;;;;;;;-9.59;100.00;96869.31;2066218;28;20046;-57
2024/01/20 00:53:02;;;;;;;39.53;19.02;;;;;;;-9.63;100.00;96865.78;2066192;28;20042;-57
2024/01/20 00:54:03;;;;;;;33.80;16.55;;;;;;;-9.65;100.00;96864.88;2065637;28;20046;-57
2024/01/20 00:55:05;;;;;;;33.28;16.65;;;;;;;-9.65;100.00;96869.91;2065731;28;20062;-57
2024/01/20 00:56:06;;;;;;;37.47;16.70;;;;;;;-9.66;100.00;96869.84;2066173;28;20467;-54
2024/01/20 00:57:08;;;;;;;33.15;16.02;;;;;;;-9.66;100.00;96873.22;2066087;28;20054;-56
2024/01/20 00:58:09;;;;;;;35.10;16.90;;;;;;;-9.65;100.00;96879.09;2066157;28;20038;-56
2024/01/20 00:59:10;;;;;;;32.75;14.60;;;;;;;-9.69;100.00;96878.09;2066166;28;20042;-57
2024/01/20 01:00:12;;;;;;;33.33;15.10;;;;;;;-9.67;100.00;96878.19;2066016;28;20046;-56
2024/01/20 01:01:13;;;;;;;38.00;15.43;;;;;;;-9.68;100.00;96886.50;2066163;28;20051;-56
2024/01/20 01:02:16;;;;;;;32.88;15.43;;;;;;;-9.73;100.00;96877.88;2066015;28;20057;-56
2024/01/20 01:03:17;;;;;;;30.80;15.05;;;;;;;-9.80;100.00;96874.25;2066058;28;20042;-56
2024/01/20 01:04:18;;;;;;;28.83;14.13;;;;;;;-9.82;100.00;96874.16;2066167;28;20046;-56
2024/01/20 01:05:19;;;;;;;25.30;11.32;;;;;;;-9.87;100.00;96873.09;2065703;28;20073;-56
2024/01/20 01:06:20;;;;;;;29.23;13.45;;;;;;;-9.82;100.00;96871.66;2066202;28;20038;-56
2024/01/20 01:07:21;;;;;;;31.15;14.35;;;;;;;-9.81;100.00;96875.03;2066197;28;20046;-56
2024/01/20 01:08:23;;;;;;;24.95;12.45;;;;;;;-9.83;100.00;96871.59;2066149;28;20053;-56
2024/01/20 01:09:24;;;;;;;24.75;13.00;;;;;;;-9.84;100.00;96868.22;2066088;28;20414;-56
2024/01/20 01:10:25;;;;;;;31.60;12.77;;;;;;;-9.84;100.00;96872.38;2065783;28;20069;-56
2024/01/20 01:11:26;;;;;;;22.33;9.45;;;;;;;-9.85;100.00;96871.53;2065852;28;20043;-56
2024/01/20 01:12:27;;;;;;;27.60;12.45;;;;;;;-9.88;100.00;96865.50;2065988;28;20049;-57
2024/01/20 01:13:28;;;;;;;30.08;13.43;;;;;;;-9.87;100.00;96864.69;2065602;28;20058;-57
2024/01/20 01:14:29;;;;;;;25.75;12.30;;;;;;;-9.92;100.00;96864.47;2066084;28;20046;-56
2024/01/20 01:15:32;;;;;;;30.40;14.35;;;;;;;-9.89;100.00;96868.78;2065882;28;20500;-57
2024/01/20 01:16:33;;;;;;;29.40;13.73;;;;;;;-9.92;100.00;96863.63;2066024;28;20049;-57
2024/01/20 01:17:34;;;;;;;27.02;13.07;;;;;;;-9.93;100.00;96869.47;2066073;28;20046;-56
2024/01/20 01:18:35;;;;;;;25.60;13.07;;;;;;;-9.98;100.00;96860.03;2065722;28;20390;-56
2024/01/20 01:19:37;;;;;;;31.48;14.48;;;;;;;-10.03;100.00;96856.47;2066058;28;20041;-56
2024/01/20 01:20:38;;;;;;;27.88;12.98;;;;;;;-10.00;100.00;96863.28;2065054;28;20051;-56
2024/01/20 01:21:39;;;;;;;32.00;15.05;;;;;;;-10.01;100.00;96864.94;2065901;28;20042;-56
2024/01/20 01:22:40;;;;;;;27.63;13.60;;;;;;;-9.99;100.00;96865.03;2065572;28;20046;-56
2024/01/20 01:23:41;;;;;;;29.25;14.05;;;;;;;-10.00;100.00;96865.78;2065876;28;20061;-56
2024/01/20 01:24:42;;;;;;;30.70;14.10;;;;;;;-9.99;100.00;96865.88;2065929;28;20038;-56
2024/01/20 01:25:43;;;;;;;30.40;13.98;;;;;;;-9.99;100.00;96863.34;2065734;28;20053;-57
2024/01/20 01:26:44;;;;;;;25.73;11.93;;;;;;;-10.01;100.00;96872.47;2065117;28;20442;-56
2024/01/20 01:27:45;;;;;;;29.63;13.13;;;;;;;-9.95;100.00;96873.53;2065136;28;20051;-56
2024/01/20 01:28:47;;;;;;;27.00;14.02;;;;;;;-9.98;100.00;96871.75;2065823;28;20057;-56
2024/01/20 01:29:48;;;;;;;28.67;13.50;;;;;;;-9.99;100.00;96878.44;2065988;28;20053;-56
2024/01/20 01:30:49;;;;;;;33.38;14.32;;;;;;;-10.03;100.00;96870.69;2065591;28;20410;-56
2024/01/20 01:31:50;;;;;;;27.48;12.95;;;;;;;-10.11;100.00;96874.50;2065769;28;20039;-56
2024/01/20 01:32:51;;;;;;;23.27;11.77;;;;;;;-10.13;100.00;96874.44;2056319;28;20050;-56
2024/01/20 01:33:52;;;;;;;25.20;12.05;;;;;;;-10.11;100.00;96877.84;2057246;28;20050;-57
2024/01/20 01:34:53;;;;;;;30.48;13.20;;;;;;;-10.07;100.00;96876.38;2065991;28;20482;-56
2024/01/20 01:35:54;;;;;;;24.17;11.02;;;;;;;-10.09;100.00;96876.28;2065883;28;20042;-56
2024/01/20 01:36:55;;;;;;;25.50;9.45;;;;;;;-10.04;100.00;96874.84;2065358;28;20065;-56
2024/01/20 01:37:58;;;;;;;26.98;11.48;;;;;;;-10.05;100.00;96884.81;2065274;28;20070;-56
2024/01/20 01:38:59;;;;;;;26.48;9.98;;;;;;;-10.07;100.00;96882.25;2065726;28;20054;-56
2024/01/20 01:40:00;;;;;;;27.77;12.57;;;;;;;-10.10;100.00;96887.13;2065935;28;20050;-56
2024/01/20 01:41:01;;;;;;;27.13;13.30;;;;;;;-10.06;100.00;96888.13;2065743;28;20049;-56
2024/01/20 01:42:02;;;;;;;26.08;11.88;;;;;;;-10.05;100.00;96883.19;2065240;28;20054;-56
2024/01/20 01:43:03;;;;;;;25.83;11.95;;;;;;;-10.08;100.00;96890.56;2065046;28;20062;-56
2024/01/20 01:44:04;;;;;;;28.35;13.60;;;;;;;-10.06;100.00;96883.97;2065738;28;20038;-57
2024/01/20 01:45:06;;;;;;;28.50;12.68;;;;;;;-10.12;100.00;96892.88;2065764;28;20138;-56
2024/01/20 01:46:07;;;;;;;28.55;12.98;;;;;;;-10.19;100.00;96889.19;2065109;28;20054;-57
2024/01/20 01:47:08;;;;;;;25.58;12.63;;;;;;;-10.21;100.00;96889.16;2056566;28;20059;-57
2024/01/20 01:48:09;;;;;;;25.77;12.30;;;;;;;-10.33;100.00;96880.19;2049270;28;20538;-56
2024/01/20 01:49:11;;;;;;;26.58;11.68;;;;;;;-10.39;100.00;96895.00;2049276;28;20051;-56
2024/01/20 01:50:12;;;;;;;28.38;13.13;;;;;;;-10.40;100.00;96891.59;2049038;29;20058;-56
2024/01/20 01:51:13;;;;;;;24.75;11.15;;;;;;;-10.47;100.00;96887.09;2057289;28;20042;-56
2024/01/20 01:52:14;;;;;;;28.55;12.63;;;;;;;-10.51;100.00;96892.72;2048509;29;20066;-56
2024/01/20 01:53:15;;;;;;;30.58;13.35;;;;;;;-10.55;100.00;96886.72;2040864;29;20499;-56
2024/01/20 01:54:17;;;;;;;28.00;12.10;;;;;;;-10.51;100.00;96892.72;2049180;28;20047;-56
2024/01/20 01:55:18;;;;;;;26.00;11.80;;;;;;;-10.55;100.00;96903.44;2057051;28;20042;-56
2024/01/20 01:56:20;;;;;;;25.63;12.18;;;;;;;-10.60;100.00;96894.81;2057195;28;20046;-56
2024/01/20 01:57:21;;;;;;;32.28;12.38;;;;;;;-10.68;100.00;96909.50;2065316;28;20050;-55
2024/01/20 01:58:22;;;;;;;26.92;12.73;;;;;;;-10.73;100.00;96913.44;2048795;29;20051;-57
2024/01/20 01:59:23;;;;;;;27.92;12.35;;;;;;;-10.74;100.00;96914.22;2041095;29;20062;-56
2024/01/20 02:00:24;;;;;;;26.05;12.73;;;;;;;-10.70;100.00;96921.09;2057094;28;20394;-56
2024/01/20 02:01:25;;;;;;;28.50;13.25;;;;;;;-10.80;100.00;96916.41;2065061;28;20043;-56
2024/01/20 02:02:27;;;;;;;29.85;13.25;;;;;;;-10.77;100.00;96927.47;2065598;28;20054;-56
2024/01/20 02:03:28;;;;;;;24.30;11.77;;;;;;;-10.74;100.00;96924.25;2056307;28;20057;-56
2024/01/20 02:04:29;;;;;;;25.63;12.98;;;;;;;-10.73;100.00;96931.84;2048935;29;20039;-56
2024/01/20 02:05:30;;;;;;;28.20;12.68;;;;;;;-10.68;100.00;96937.97;2056057;28;20058;-56
2024/01/20 02:06:31;;;;;;;29.42;12.63;;;;;;;-10.64;100.00;96936.47;2065674;28;20038;-56
2024/01/20 02:07:32;;;;;;;27.20;12.45;;;;;;;-10.67;100.00;96929.63;2065664;28;20053;-56
2024/01/20 02:08:34;;;;;;;25.05;12.30;;;;;;;-10.63;100.00;96925.66;2056723;28;20054;-56
2024/01/20 02:09:35;;;;;;;30.23;13.38;;;;;;;-10.59;100.00;96930.03;2057087;28;20051;-57
2024/01/20 02:10:38;;;;;;;23.70;11.73;;;;;;;-10.62;100.00;96934.03;2064694;28;20081;-55
2024/01/20 02:11:39;;;;;;;27.90;12.65;;;;;;;-10.60;100.00;96923.28;2056840;28;20504;-56
2024/01/20 02:12:40;;;;;;;26.40;12.52;;;;;;;-10.55;100.00;96923.53;2048639;29;20043;-56
2024/01/20 02:13:41;;;;;;;28.00;10.70;;;;;;;-10.61;100.00;96918.19;2057050;28;20398;-56
2024/01/20 02:14:42;;;;;;;32.67;13.20;;;;;;;-10.57;100.00;96918.41;2048996;29;20047;-56
2024/01/20 02:15:43;;;;;;;27.23;12.43;;;;;;;-10.50;100.00;96919.59;2057176;28;20043;-56
2024/01/20 02:16:44;;;;;;;32.00;13.70;;;;;;;-10.49;100.00;96918.78;2056803;28;20066;-56
2024/01/20 02:17:52;;;;;;;29.23;12.48;;;;;;;-10.46;100.00;96921.44;2056946;28;20051;-56
2024/01/20 02:19:03;;;;;;;24.58;12.13;;;;;;;-10.41;100.00;96914.13;2065334;28;20081;-56
2024/01/20 02:20:05;;;;;;;29.17;11.77;;;;;;;-10.37;100.00;96916.00;2065731;28;20061;-56
2024/01/20 02:21:06;;;;;;;25.52;12.50;;;;;;;-10.36;100.00;96907.69;2065492;28;20058;-56
2024/01/20 02:22:11;;;;;;;27.90;11.70;;;;;;;-10.30;100.00;96905.47;2064575;28;20054;-56
2024/01/20 02:23:12;;;;;;;26.85;12.20;;;;;;;-10.32;100.00;96896.97;2065492;28;20050;-56
2024/01/20 02:24:14;;;;;;;25.35;12.20;;;;;;;-10.33;100.00;96893.63;2065508;28;20046;-56
2024/01/20 02:25:15;;;;;;;27.42;12.23;;;;;;;-10.35;100.00;96899.34;2065514;28;20050;-56
2024/01/20 02:26:16;;;;;;;25.95;11.43;;;;;;;-10.39;100.00;96893.34;2064747;28;20043;-57
2024/01/20 02:27:17;;;;;;;26.42;11.95;;;;;;;-10.40;100.00;96890.72;2065434;28;20042;-57
2024/01/20 02:28:18;;;;;;;24.05;11.68;;;;;;;-10.36;100.00;96885.94;2065487;28;20109;-54
2024/01/20 02:29:20;;;;;;;25.38;11.90;;;;;;;-10.37;100.00;96880.84;2065478;28;20053;-56
2024/01/20 02:30:21;;;;;;;25.85;11.63;;;;;;;-10.33;100.00;96877.69;2065614;28;20046;-57
2024/01/20 02:31:22;;;;;;;24.27;11.60;;;;;;;-10.35;100.00;96877.59;2065512;28;20045;-56
2024/01/20 02:32:23;;;;;;;25.15;11.30;;;;;;;-10.35;100.00;96874.25;2065209;28;20050;-56
2024/01/20 02:33:24;;;;;;;24.75;11.52;;;;;;;-10.46;100.00;96864.53;2065253;28;20050;-56
2024/01/20 02:34:26;;;;;;;24.45;11.60;;;;;;;-10.43;100.00;96876.38;2065470;28;20046;-57
2024/01/20 02:35:28;;;;;;;23.90;11.20;;;;;;;-10.49;100.00;96871.09;2065542;28;20046;-56
2024/01/20 02:36:29;;;;;;;25.15;11.02;;;;;;;-10.56;100.00;96882.47;2065456;28;20038;-56
2024/01/20 02:37:30;;;;;;;25.00;10.73;;;;;;;-10.58;100.00;96870.63;2065519;28;20038;-56
2024/01/20 02:38:31;;;;;;;22.75;10.68;;;;;;;-10.53;100.00;96890.16;2065489;28;20501;-57
2024/01/20 02:39:32;;;;;;;24.55;11.13;;;;;;;-10.50;100.00;96881.91;2056240;28;20047;-56
2024/01/20 02:40:33;;;;;;;24.75;11.80;;;;;;;-10.50;100.00;96882.78;2056846;28;20499;-57
2024/01/20 02:41:34;;;;;;;25.77;12.15;;;;;;;-10.51;100.00;96898.63;2064490;28;20050;-56
2024/01/20 02:42:35;;;;;;;23.92;11.82;;;;;;;-10.52;100.00;96904.44;2065484;28;20054;-56
2024/01/20 02:43:36;;;;;;;24.02;12.57;;;;;;;-10.54;100.00;96910.16;2065536;28;20038;-56
2024/01/20 02:44:38;;;;;;;28.67;12.20;;;;;;;-10.64;100.00;96910.50;2065585;28;20594;-56
2024/01/20 02:45:39;;;;;;;27.90;12.30;;;;;;;-10.76;100.00;96918.31;2065287;28;20046;-56
2024/01/20 02:46:40;;;;;;;26.92;12.05;;;;;;;-10.79;100.00;96928.19;2065151;28;20061;-56
2024/01/20 02:47:41;;;;;;;27.00;12.20;;;;;;;-10.69;100.00;96922.81;2065463;28;20053;-56
2024/01/20 02:48:43;;;;;;;30.77;12.13;;;;;;;-10.80;100.00;96927.31;2065464;28;20398;-57
2024/01/20 02:49:44;;;;;;;26.45;12.05;;;;;;;-10.91;100.00;96920.91;2065496;28;20046;-56
2024/01/20 02:50:45;;;;;;;27.70;12.35;;;;;;;-11.00;100.00;96915.44;2065089;28;20070;-56
2024/01/20 02:51:46;;;;;;;25.00;11.57;;;;;;;-10.97;100.00;96918.09;2065553;28;20046;-57
2024/01/20 02:52:47;;;;;;;29.40;12.32;;;;;;;-10.92;100.00;96910.00;2065143;28;20058;-56
2024/01/20 02:53:48;;;;;;;26.58;12.07;;;;;;;-10.91;100.00;96910.84;2065005;28;20053;-56
2024/01/20 02:54:49;;;;;;;28.15;12.63;;;;;;;-10.80;100.00;96907.22;2065574;28;20493;-56
2024/01/20 02:55:50;;;;;;;25.95;12.55;;;;;;;-10.77;100.00;96907.41;2064749;28;20062;-56
2024/01/20 02:56:52;;;;;;;26.65;11.90;;;;;;;-10.76;100.00;96918.31;2065472;28;20101;-56
2024/01/20 02:57:53;;;;;;;28.65;11.82;;;;;;;-10.73;100.00;96908.41;2065025;28;20061;-57
2024/01/20 02:58:54;;;;;;;27.42;13.52;;;;;;;-10.82;100.00;96897.91;2064997;28;20054;-56
2024/01/20 02:59:55;;;;;;;23.35;12.82;;;;;;;-10.90;100.00;96908.44;2065270;28;20038;-56
2024/01/20 03:00:58;;;;;;;24.48;12.23;;;;;;;-11.02;100.00;96912.84;2065161;28;20417;-56
2024/01/20 03:02:01;;;;;;;30.65;11.77;;;;;;;-11.06;100.00;96910.97;2065342;28;20506;-56
2024/01/20 03:03:03;;;;;;;23.35;12.07;;;;;;;-11.05;100.00;96912.69;2065465;28;20042;-57
2024/01/20 03:04:04;;;;;;;25.98;11.90;;;;;;;-10.83;100.00;96914.59;2065249;28;20467;-56
2024/01/20 03:05:05;;;;;;;27.80;12.10;;;;;;;-10.77;100.00;96914.06;2065390;28;20053;-56
2024/01/20 03:06:07;;;;;;;28.45;13.18;;;;;;;-10.81;100.00;96905.53;2065410;28;20046;-57
2024/01/20 03:07:08;;;;;;;24.27;12.02;;;;;;;-10.84;100.00;96904.50;2064720;28;20062;-56
2024/01/20 03:08:09;;;;;;;26.50;12.52;;;;;;;-10.93;100.00;96908.28;2065339;28;20053;-56
2024/01/20 03:09:14;;;;;;;25.17;12.30;;;;;;;-10.93;100.00;96918.31;2066588;28;20417;-56
2024/01/20 03:10:15;;;;;;;24.98;12.40;;;;;;;-10.97;100.00;96913.06;2067009;28;20466;-57
2024/01/20 03:11:16;;;;;;;25.65;11.82;;;;;;;-11.07;100.00;96915.91;2065840;28;20046;-54
2024/01/20 03:12:18;;;;;;;24.90;11.73;;;;;;;-11.17;100.00;96920.47;2066409;28;20479;-56
2024/01/20 03:13:19;;;;;;;27.63;13.10;;;;;;;-10.99;100.00;96920.50;2066517;28;20425;-56
2024/01/20 03:14:20;;;;;;;30.83;12.40;;;;;;;-11.06;100.00;96923.50;2066606;28;20057;-56
2024/01/20 03:15:21;;;;;;;28.45;12.73;;;;;;;-10.85;100.00;96927.88;2066919;28;20042;-56
2024/01/20 03:16:22;;;;;;;29.40;13.63;;;;;;;-10.75;100.00;96927.53;2066811;28;20045;-56
2024/01/20 03:17:23;;;;;;;30.30;12.60;;;;;;;-10.78;100.00;96924.88;2066921;28;20046;-56
2024/01/20 03:18:24;;;;;;;29.48;12.98;;;;;;;-10.71;100.00;96925.28;2066797;28;20050;-57
2024/01/20 03:19:25;;;;;;;26.83;12.63;;;;;;;-10.67;100.00;96923.75;2066995;28;20042;-56
2024/01/20 03:20:26;;;;;;;26.75;12.73;;;;;;;-10.78;100.00;96922.38;2066269;28;20050;-56
2024/01/20 03:21:27;;;;;;;30.73;12.30;;;;;;;-10.74;100.00;96924.25;2066373;28;20418;-58
2024/01/20 03:22:29;;;;;;;24.35;12.27;;;;;;;-10.75;100.00;96930.06;2066874;28;20046;-57
2024/01/20 03:23:30;;;;;;;26.65;12.40;;;;;;;-10.71;100.00;96926.91;2066694;28;20050;-56
2024/01/20 03:24:31;;;;;;;27.83;12.80;;;;;;;-10.73;100.00;96936.03;2066779;28;20042;-56
2024/01/20 03:25:32;;;;;;;26.80;12.80;;;;;;;-10.73;100.00;96931.84;2066904;28;20054;-56
2024/01/20 03:26:33;;;;;;;29.70;12.93;;;;;;;-10.75;100.00;96932.56;2065827;28;20054;-54
2024/01/20 03:27:34;;;;;;;25.85;11.98;;;;;;;-10.84;100.00;96932.97;2066895;28;20042;-54
2024/01/20 03:28:37;;;;;;;27.45;14.05;;;;;;;-10.81;100.00;96932.25;2066551;28;20111;-54
2024/01/20 03:29:38;;;;;;;27.95;13.32;;;;;;;-10.85;100.00;96935.41;2066915;28;20042;-57
2024/01/20 03:30:39;;;;;;;29.52;13.30;;;;;;;-10.90;100.00;96935.19;2066818;28;20054;-56
2024/01/20 03:31:41;;;;;;;29.83;13.40;;;;;;;-10.89;100.00;96927.72;2066788;28;20410;-56
2024/01/20 03:32:42;;;;;;;28.05;12.93;;;;;;;-10.82;100.00;96936.44;2066160;28;20050;-56
2024/01/20 03:33:43;;;;;;;29.35;14.30;;;;;;;-10.82;100.00;96930.53;2066700;28;20398;-56
2024/01/20 03:34:44;;;;;;;26.48;12.95;;;;;;;-10.79;100.00;96938.22;2066803;28;20053;-57
2024/01/20 03:35:45;;;;;;;30.15;13.77;;;;;;;-10.90;100.00;96932.69;2065777;28;20058;-56
2024/01/20 03:36:47;;;;;;;27.20;12.82;;;;;;;-11.04;100.00;96941.13;2066345;28;20058;-56
2024/01/20 03:37:48;;;;;;;27.48;13.02;;;;;;;-11.14;100.00;96934.81;2066685;28;20165;-54
2024/01/20 03:38:49;;;;;;;27.25;12.30;;;;;;;-11.22;100.00;96943.59;2066718;28;20042;-56
2024/01/20 03:39:50;;;;;;;26.75;13.20;;;;;;;-11.30;99.93;96944.81;2065643;28;20054;-54
2024/01/20 03:40:51;;;;;;;31.40;13.73;;;;;;;-11.28;100.00;96948.25;2065890;28;20065;-56
2024/01/20 03:41:52;;;;;;;27.38;13.68;;;;;;;-11.21;100.00;96945.28;2066583;28;20386;-56
2024/01/20 03:42:53;;;;;;;31.85;14.43;;;;;;;-11.33;100.00;96951.41;2066252;28;20073;-57
2024/01/20 03:43:55;;;;;;;29.42;13.75;;;;;;;-11.33;100.00;96948.91;2066286;28;20058;-56
2024/01/20 03:44:57;;;;;;;33.13;14.50;;;;;;;-11.03;100.00;96951.25;2066606;28;20058;-56
2024/01/20 03:45:58;;;;;;;27.55;13.27;;;;;;;-10.98;100.00;96944.84;2066624;28;20049;-57
2024/01/20 03:46:59;;;;;;;30.98;14.15;;;;;;;-11.08;100.00;96950.16;2066598;28;20530;-58
2024/01/20 03:48:00;;;;;;;34.83;14.98;;;;;;;-11.20;100.00;96945.38;2066563;28;20042;-56
2024/01/20 03:49:01;;;;;;;32.50;14.05;;;;;;;-11.28;100.00;96943.25;2066215;28;20055;-56
2024/01/20 03:50:03;;;;;;;33.20;14.65;;;;;;;-11.13;100.00;96941.53;2066644;28;20054;-57
2024/01/20 03:51:04;;;;;;;32.35;15.07;;;;;;;-11.03;100.00;96932.84;2057389;28;20070;-56
2024/01/20 03:52:05;;;;;;;28.38;13.40;;;;;;;-10.95;100.00;96944.97;2058172;28;20049;-57
2024/01/20 03:53:07;;;;;;;31.38;14.10;;;;;;;-10.98;100.00;96939.81;2066751;28;20502;-56
2024/01/20 03:54:08;;;;;;;26.30;12.68;;;;;;;-10.90;100.00;96932.69;2066680;28;20057;-56
2024/01/20 03:55:10;;;;;;;29.40;13.88;;;;;;;-10.78;100.00;96935.78;2066151;28;20065;-56
2024/01/20 03:56:11;;;;;;;29.40;14.07;;;;;;;-10.76;100.00;96930.84;2066562;28;20050;-56
2024/01/20 03:57:12;;;;;;;28.35;13.98;;;;;;;-10.70;100.00;96941.19;2066299;28;20414;-56
2024/01/20 03:58:13;;;;;;;30.27;13.60;;;;;;;-10.76;100.00;96939.22;2066533;28;20383;-57
2024/01/20 03:59:14;;;;;;;28.52;12.82;;;;;;;-10.72;100.00;96945.25;2065950;28;20050;-57
2024/01/20 04:00:15;;;;;;;31.90;14.30;;;;;;;-10.65;100.00;96939.78;2066707;28;20038;-56
2024/01/20 04:01:16;;;;;;;28.58;13.13;;;;;;;-10.70;100.00;96943.69;2065966;28;20051;-57
2024/01/20 04:02:18;;;;;;;27.25;12.82;;;;;;;-10.69;100.00;96948.81;2065884;28;20057;-56
2024/01/20 04:03:19;;;;;;;31.38;14.25;;;;;;;-10.66;100.00;96938.06;2066155;28;20042;-56
2024/01/20 04:04:20;;;;;;;27.90;13.57;;;;;;;-10.63;100.00;96943.22;2066295;28;20053;-56
2024/01/20 04:05:21;;;;;;;27.52;13.32;;;;;;;-10.70;100.00;96953.72;2066413;28;20057;-56
2024/01/20 04:06:22;;;;;;;27.45;12.85;;;;;;;-10.64;100.00;96943.13;2066074;28;20076;-56
2024/01/20 04:07:23;;;;;;;27.75;12.77;;;;;;;-10.61;100.00;96946.69;2066637;28;20049;-56
2024/01/20 04:08:24;;;;;;;27.33;12.52;;;;;;;-10.59;100.00;96944.22;2066563;28;20050;-56
2024/01/20 04:09:26;;;;;;;26.55;12.57;;;;;;;-10.63;100.00;96949.91;2066641;28;20486;-57
2024/01/20 04:10:27;;;;;;;27.02;12.00;;;;;;;-10.57;100.00;96950.19;2066153;28;20061;-57
2024/01/20 04:11:28;;;;;;;26.67;11.80;;;;;;;-10.57;100.00;96950.19;2066205;28;20043;-56
2024/01/20 04:12:29;;;;;;;25.40;11.95;;;;;;;-10.61;100.00;96945.78;2066365;28;20065;-56
2024/01/20 04:13:31;;;;;;;26.52;11.13;;;;;;;-10.59;100.00;96951.75;2066448;28;20042;-56
2024/01/20 04:14:32;;;;;;;27.65;12.40;;;;;;;-10.60;100.00;96960.94;2066072;28;20410;-58
2024/01/20 04:15:33;;;;;;;24.15;11.90;;;;;;;-10.67;100.00;96963.91;2066184;28;20054;-56
2024/01/20 04:16:34;;;;;;;26.00;12.45;;;;;;;-10.73;100.00;96961.13;2066483;28;20050;-56
2024/01/20 04:17:35;;;;;;;27.52;12.68;;;;;;;-10.76;100.00;96958.47;2066008;28;20045;-56
2024/01/20 04:18:36;;;;;;;27.45;12.75;;;;;;;-10.87;100.00;96960.44;2066413;28;20390;-56
2024/01/20 04:19:37;;;;;;;30.40;12.48;;;;;;;-10.86;100.00;96964.66;2066060;28;20058;-56
2024/01/20 04:20:38;;;;;;;25.65;12.00;;;;;;;-10.97;100.00;96960.75;2065739;28;20038;-56
2024/01/20 04:21:40;;;;;;;26.58;12.20;;;;;;;-11.00;100.00;96966.47;2066741;28;20058;-56
2024/01/20 04:22:41;;;;;;;23.88;12.13;;;;;;;-10.94;100.00;96966.78;2066019;28;20422;-56
2024/01/20 04:23:42;;;;;;;27.77;12.40;;;;;;;-10.98;100.00;96969.06;2066434;28;20054;-56
2024/01/20 04:24:43;;;;;;;22.33;11.20;;;;;;;-11.10;100.00;96967.63;2066262;28;20038;-57
2024/01/20 04:25:44;;;;;;;28.67;12.35;;;;;;;-11.17;100.00;96964.72;2066451;28;20398;-56
2024/01/20 04:26:45;;;;;;;28.38;12.75;;;;;;;-11.16;100.00;96969.81;2066451;28;20042;-56
2024/01/20 04:27:46;;;;;;;26.90;12.57;;;;;;;-11.20;100.00;96972.97;2065979;28;20061;-56
2024/01/20 04:28:47;;;;;;;31.15;12.55;;;;;;;-11.17;100.00;96977.25;2066489;28;20046;-56
2024/01/20 04:29:48;;;;;;;26.48;13.18;;;;;;;-11.17;100.00;96962.22;2066256;28;20518;-56
2024/01/20 04:30:50;;;;;;;28.17;12.68;;;;;;;-11.11;100.00;96973.44;2066400;28;20053;-56
2024/01/20 04:31:51;;;;;;;29.35;13.00;;;;;;;-11.16;100.00;96969.81;2065468;28;20505;-56
2024/01/20 04:32:52;;;;;;;27.80;13.52;;;;;;;-11.19;100.00;96979.72;2066497;28;20043;-56
2024/01/20 04:33:53;;;;;;;27.95;12.82;;;;;;;-11.14;100.00;96969.91;2066413;28;20053;-57
2024/01/20 04:34:54;;;;;;;28.05;12.05;;;;;;;-11.11;100.00;96968.41;2066390;28;20042;-56
2024/01/20 04:35:56;;;;;;;33.58;13.07;;;;;;;-11.12;100.00;96970.84;2066214;28;20521;-56
2024/01/20 04:36:57;;;;;;;25.95;12.93;;;;;;;-11.06;100.00;96978.69;2066275;28;20053;-56